Littleton, Maine
Current Conditions -  °F | °C
As of 12:53 AM on Thursday 29 Jan 2015 (Local Time) from KHUL Reporting Station
Clear Clear  
Wind Chill: -12°   Ceiling: Unl
Heat Index:   Visibility: 10mi
Dew Point: -5°   Wind: 7mph
Humidity: 75%   Direction: 30°NNE
Pressure: 30.11"   Gusts: NA
Location:  46.1163°N, 67.9329°W
Report Text: KHUL 290553Z AUTO 03006KT 10SM CLR M17/M21 A3011 RMK AO2 SLP211 T11721206 11089 21189 53027
Loading
Personal Weather Stations






























Interactive Weather Map New forecast layout! Learn more

10-Day Weather Forecast

Advertisements
Track Severe Weather on mobile